createdAt,value
2018-03-02T00:00:31.602Z,0.28
2018-03-02T00:05:28.761Z,0.34
2018-03-02T00:10:26.037Z,0.36
2018-03-02T00:15:23.391Z,0.44
2018-03-02T00:20:20.703Z,0.40
2018-03-02T00:25:17.773Z,0.53
2018-03-02T00:30:16.209Z,0.61
2018-03-02T00:35:13.470Z,0.51
2018-03-02T00:40:11.941Z,0.53
2018-03-02T00:45:09.353Z,0.72
2018-03-02T00:50:06.878Z,0.45
2018-03-02T00:55:04.073Z,0.29
2018-03-02T01:00:04.552Z,0.59
2018-03-02T01:05:01.781Z,0.30
2018-03-02T01:10:00.778Z,0.34
2018-03-02T01:14:57.873Z,0.70
2018-03-02T01:19:56.029Z,0.69
2018-03-02T01:24:53.176Z,0.40
2018-03-02T01:29:50.598Z,0.71
2018-03-02T01:34:47.798Z,0.57
2018-03-02T01:39:46.223Z,0.52
2018-03-02T01:44:43.975Z,0.51
2018-03-02T01:49:42.166Z,0.41
2018-03-02T01:54:39.474Z,0.32
2018-03-02T01:59:40.389Z,0.11
2018-03-02T02:04:37.648Z,-0.30
2018-03-02T02:09:38.509Z,-0.34
2018-03-02T02:14:35.942Z,-0.52
2018-03-02T02:19:34.197Z,-0.55
2018-03-02T02:24:31.653Z,-0.68
2018-03-02T02:29:29.095Z,-0.49
2018-03-02T02:34:26.191Z,-0.61
2018-03-02T02:39:24.686Z,-0.33
2018-03-02T02:44:21.746Z,-0.25
2018-03-02T02:49:20.143Z,-0.18
2018-03-02T02:54:17.486Z,-0.03
2018-03-02T02:59:14.668Z,0.03
2018-03-02T03:04:11.958Z,0.02
2018-03-02T03:09:12.336Z,0.04
2018-03-02T03:14:09.614Z,0.04
2018-03-02T03:19:07.075Z,0.07
2018-03-02T03:24:04.302Z,0.05
2018-03-02T03:29:02.710Z,0.04
2018-03-02T03:33:59.952Z,0.06
2018-03-02T03:38:59.194Z,0.08
2018-03-02T03:43:56.452Z,-0.01
2018-03-02T03:48:54.948Z,0.12
2018-03-02T03:53:52.181Z,0.19
2018-03-02T03:58:52.474Z,0.20
2018-03-02T04:03:49.754Z,0.18
2018-03-02T04:08:48.148Z,0.14
2018-03-02T04:13:45.453Z,0.12
2018-03-02T04:18:43.835Z,0.15
2018-03-02T04:23:41.063Z,0.30
2018-03-02T04:28:38.529Z,0.28
2018-03-02T04:33:35.669Z,0.33
2018-03-02T04:38:32.949Z,0.25
2018-03-02T04:43:30.209Z,0.33
2018-03-02T04:48:30.636Z,0.28
2018-03-02T04:53:27.849Z,0.19
2018-03-02T04:58:28.652Z,0.26
2018-03-02T05:03:25.818Z,0.32
2018-03-02T05:08:24.229Z,0.33
2018-03-02T05:13:21.409Z,0.38
2018-03-02T05:18:19.837Z,0.46
2018-03-02T05:23:17.087Z,0.45
2018-03-02T05:28:17.814Z,0.50
2018-03-02T05:33:14.952Z,0.51
2018-03-02T05:38:15.793Z,0.66
2018-03-02T05:43:13.063Z,0.83
2018-03-02T05:48:10.482Z,0.82
2018-03-02T05:53:07.789Z,0.90
2018-03-02T05:58:05.208Z,1.04
2018-03-02T06:03:02.367Z,1.13
2018-03-02T06:08:03.529Z,1.28
2018-03-02T06:13:01.126Z,1.33
2018-03-02T06:17:58.305Z,1.32
2018-03-02T06:22:56.594Z,1.48
2018-03-02T06:27:55.066Z,1.43
2018-03-02T06:32:52.134Z,1.62
2018-03-02T06:37:53.274Z,1.79
2018-03-02T06:42:50.574Z,1.77
2018-03-02T06:47:47.784Z,1.63
2018-03-02T06:52:44.994Z,1.71
2018-03-02T06:57:42.125Z,1.83
2018-03-02T07:02:39.880Z,1.92
2018-03-02T07:07:37.597Z,2.05
2018-03-02T07:12:34.829Z,2.36
2018-03-02T07:17:32.973Z,2.60
2018-03-02T07:22:31.059Z,2.74
2018-03-02T07:27:28.300Z,3.30
2018-03-02T07:32:28.725Z,3.02
2018-03-02T07:37:25.918Z,3.26
2018-03-02T07:42:24.054Z,3.24
2018-03-02T07:47:21.211Z,3.74
2018-03-02T07:52:19.518Z,3.56
2018-03-02T07:57:16.846Z,3.76
2018-03-02T08:02:14.301Z,4.13
2018-03-02T08:07:12.008Z,3.88
2018-03-02T08:12:11.297Z,4.29
2018-03-02T08:17:09.269Z,4.12
2018-03-02T08:22:08.001Z,3.61
2018-03-02T08:27:05.388Z,4.09
2018-03-02T08:32:03.694Z,3.94
2018-03-02T08:37:01.193Z,4.60
2018-03-02T08:41:58.661Z,4.40
2018-03-02T08:46:55.782Z,4.43
2018-03-02T08:51:57.020Z,4.17
2018-03-02T08:56:54.249Z,4.66
2018-03-02T09:01:52.706Z,4.40
2018-03-02T09:06:49.974Z,4.87
2018-03-02T09:11:53.112Z,4.53
2018-03-02T09:16:50.301Z,4.85
2018-03-02T09:21:47.714Z,5.33
2018-03-02T09:26:44.973Z,4.79
2018-03-02T09:31:45.955Z,4.34
2018-03-02T09:36:43.283Z,4.38
2018-03-02T09:41:40.626Z,4.43
2018-03-02T09:46:37.929Z,4.50
2018-03-02T09:51:38.608Z,4.92
2018-03-02T09:56:35.858Z,4.96
2018-03-02T10:01:33.033Z,5.33
2018-03-02T10:06:30.508Z,5.34
2018-03-02T10:11:31.663Z,5.39
2018-03-02T10:16:28.786Z,5.43
2018-03-02T10:21:27.166Z,5.36
2018-03-02T10:26:24.478Z,6.09
2018-03-02T10:31:25.427Z,5.88
2018-03-02T10:36:22.579Z,5.63
2018-03-02T10:41:19.704Z,5.47
2018-03-02T10:46:16.857Z,5.28
2018-03-02T10:51:17.703Z,5.77
2018-03-02T10:56:15.053Z,5.82
2018-03-02T11:01:13.186Z,5.47
2018-03-02T11:06:10.458Z,5.61
2018-03-02T11:11:11.418Z,5.76
2018-03-02T11:16:08.777Z,6.30
2018-03-02T11:21:06.002Z,6.06
2018-03-02T11:26:03.370Z,6.24
2018-03-02T11:31:01.793Z,6.37
2018-03-02T11:36:00.617Z,6.33
2018-03-02T11:40:58.120Z,6.21
2018-03-02T11:45:55.350Z,6.28
2018-03-02T11:50:52.922Z,6.16
2018-03-02T11:55:49.918Z,6.35
2018-03-02T12:00:48.347Z,6.27
2018-03-02T12:05:45.618Z,5.93
2018-03-02T12:10:44.150Z,6.54
2018-03-02T12:15:41.462Z,6.53
2018-03-02T12:20:42.042Z,6.54
2018-03-02T12:25:39.301Z,6.68
2018-03-02T12:30:39.781Z,7.15
2018-03-02T12:35:37.078Z,6.78
2018-03-02T12:40:34.433Z,7.30
2018-03-02T12:45:31.860Z,7.18
2018-03-02T12:50:29.282Z,7.28
2018-03-02T12:55:26.853Z,7.30
2018-03-02T13:00:25.154Z,7.17
2018-03-02T13:05:22.465Z,7.42
2018-03-02T13:10:19.961Z,7.63
2018-03-02T13:15:17.482Z,7.67
2018-03-02T13:20:19.078Z,7.82
2018-03-02T13:25:17.028Z,7.49
2018-03-02T13:30:22.050Z,7.61
2018-03-02T13:35:19.190Z,7.66
2018-03-02T13:40:34.562Z,7.95
2018-03-02T13:45:32.143Z,7.70
2018-03-02T13:50:33.866Z,7.54
2018-03-02T13:55:31.047Z,7.39
2018-03-02T14:00:28.545Z,7.50
2018-03-02T14:05:26.062Z,7.43
2018-03-02T14:10:23.193Z,7.45
2018-03-02T14:15:20.314Z,7.36
2018-03-02T14:20:17.874Z,7.23
2018-03-02T14:25:15.185Z,7.22
2018-03-02T14:30:13.497Z,7.21
2018-03-02T14:35:10.649Z,7.02
2018-03-02T14:40:08.099Z,7.14
2018-03-02T14:45:05.239Z,7.18
2018-03-02T14:50:03.417Z,7.36
2018-03-02T14:55:00.576Z,7.41
2018-03-02T15:00:04.293Z,7.74
2018-03-02T15:05:01.541Z,7.38
2018-03-02T15:10:03.979Z,7.40
2018-03-02T15:15:01.850Z,8.15
2018-03-02T15:19:59.313Z,8.07
2018-03-02T15:24:56.638Z,6.93
2018-03-02T15:29:54.368Z,6.77
2018-03-02T15:34:51.839Z,6.63
2018-03-02T15:39:53.094Z,6.58
2018-03-02T15:44:51.170Z,6.24
2018-03-02T15:49:51.789Z,6.29
2018-03-02T15:54:48.974Z,6.79
2018-03-02T15:59:46.303Z,6.48
2018-03-02T16:04:43.616Z,6.06
2018-03-02T16:09:45.085Z,5.99
2018-03-02T16:14:42.302Z,5.94
2018-03-02T16:19:40.712Z,6.05
2018-03-02T16:24:38.095Z,5.94
2018-03-02T16:29:39.375Z,5.90
2018-03-02T16:34:36.587Z,5.94
2018-03-02T16:39:33.811Z,5.86
2018-03-02T16:44:31.020Z,5.11
2018-03-02T16:49:28.587Z,4.76
2018-03-02T16:54:25.870Z,4.92
2018-03-02T16:59:24.090Z,5.24
2018-03-02T17:04:21.430Z,5.09
2018-03-02T17:09:19.562Z,4.60
2018-03-02T17:14:16.925Z,4.84
2018-03-02T17:19:15.126Z,5.10
2018-03-02T17:24:12.386Z,4.65
2018-03-02T17:29:13.719Z,4.79
2018-03-02T17:34:10.976Z,5.21
2018-03-02T17:39:08.350Z,5.59
2018-03-02T17:44:07.127Z,5.63
2018-03-02T17:49:04.423Z,6.07
2018-03-02T17:54:01.927Z,6.17
2018-03-02T17:58:59.982Z,6.40
2018-03-02T18:03:57.284Z,6.58
2018-03-02T18:08:55.160Z,6.42
2018-03-02T18:13:52.516Z,6.29
2018-03-02T18:18:49.966Z,6.44
2018-03-02T18:23:47.287Z,6.26
2018-03-02T18:28:45.193Z,6.19
2018-03-02T18:33:43.211Z,6.39
2018-03-02T18:38:40.518Z,6.45
2018-03-02T18:43:38.756Z,6.04
2018-03-02T18:48:36.193Z,5.81
2018-03-02T18:53:33.426Z,5.98
2018-03-02T18:58:31.289Z,5.52
2018-03-02T19:03:28.611Z,5.38
2018-03-02T19:08:25.910Z,5.27
2018-03-02T19:13:23.932Z,5.04
2018-03-02T19:18:22.402Z,5.25
2018-03-02T19:23:19.939Z,4.59
2018-03-02T19:28:18.253Z,4.63
2018-03-02T19:33:16.159Z,4.68
2018-03-02T19:38:14.495Z,4.97
2018-03-02T19:43:12.510Z,5.16
2018-03-02T19:48:10.936Z,4.57
2018-03-02T19:53:08.969Z,4.56
2018-03-02T19:58:10.330Z,4.59
2018-03-02T20:03:08.479Z,4.64
2018-03-02T20:08:07.066Z,4.59
2018-03-02T20:13:04.238Z,4.89
2018-03-02T20:18:05.498Z,4.84
2018-03-02T20:23:02.756Z,5.02
2018-03-02T20:28:00.998Z,4.81
2018-03-02T20:32:58.298Z,4.74
2018-03-02T20:37:58.627Z,4.88
2018-03-02T20:42:55.967Z,4.91
2018-03-02T20:47:56.630Z,5.01
2018-03-02T20:52:53.886Z,4.61
2018-03-02T20:57:51.221Z,4.89
2018-03-02T21:02:48.464Z,5.34
2018-03-02T21:07:45.794Z,4.65
2018-03-02T21:12:43.081Z,5.16
2018-03-02T21:17:40.610Z,5.11
2018-03-02T21:22:38.051Z,5.31
2018-03-02T21:27:35.301Z,5.04
2018-03-02T21:32:32.849Z,4.66
2018-03-02T21:37:31.019Z,5.16
2018-03-02T21:42:28.313Z,4.73
2018-03-02T21:47:26.482Z,5.10
2018-03-02T21:52:24.774Z,5.29
2018-03-02T21:57:25.411Z,4.98
2018-03-02T22:02:22.546Z,5.07
2018-03-02T22:07:22.770Z,4.90
2018-03-02T22:12:20.542Z,5.07
2018-03-02T22:17:18.944Z,4.94
2018-03-02T22:22:17.018Z,5.25
2018-03-02T22:27:18.061Z,5.29
2018-03-02T22:32:15.398Z,5.00
2018-03-02T22:37:13.793Z,5.20
2018-03-02T22:42:11.705Z,5.41
2018-03-02T22:47:12.941Z,5.02
2018-03-02T22:52:09.997Z,5.91
2018-03-02T22:57:11.030Z,4.92
2018-03-02T23:02:08.293Z,5.57
2018-03-02T23:07:09.080Z,5.04
2018-03-02T23:12:06.274Z,5.51
2018-03-02T23:17:03.486Z,5.16
2018-03-02T23:22:00.770Z,5.14
2018-03-02T23:27:04.381Z,5.34
2018-03-02T23:32:01.666Z,5.21
2018-03-02T23:37:02.577Z,4.83
2018-03-02T23:41:59.917Z,5.14
2018-03-02T23:46:58.585Z,4.75
2018-03-02T23:51:55.850Z,4.71
2018-03-02T23:56:57.432Z,5.10
